首页
METAR-TAF:

METAR-TAF

机场 :

馬拉博機場

馬拉博, 赤道几内亚

纬度: 03-45-18N, 经度: 08-42-31E, 海拔: 23米

当前天气观测

该预报发布于39分钟前的01:00 UTC
风速6节,风向西转西南
温度 25°C
湿度 100%
气压 1012 hPa
能见度10公里或以上
散云层高于1000英尺

METAR: FGSL 250100Z 25006KT 9999 SCT010 25/25 Q1012 NOSIG

时间: 02:39 (01:39 UTC)

预报

该预报发布于2小时和39分钟前的23:00 UTC
预报有效从25日的 00点(UTC)到 26日的 06点(UTC)
能见度10公里或以上
散云层高于1000英尺
短暂存在
从 25日的 02点(UTC)到 25日的 04点(UTC)
多云层高于1000英尺
少量云层高于2000英尺, 积雨云.
雷暴
短暂存在
从 25日的 04点(UTC)到 25日的 10点(UTC)
散云层高于1000英尺

TAF: FGSL 242300Z 2500/2606 21006 9999 SCT010 TEMPO 2502/2504 TS BKN010 FEW020CB TEMPO 2504/2510 NSW SCT010

超过4000个机场的气象观测和天气预报(METAR&TAF报告)。

可查询的气象台以黄色和红色小点在地图上表示。

将鼠标移到小点上方,可查看气象台名称。

然后点击查看天气观测和预报。

如需切换地图:点击带黑十字的绿色按钮放大地图;点击带横线的绿色按钮缩小地图;或者点击绿色箭头查看邻近地区的地图。


METAR-TAF: